Time;durP1;ratioP1;P1;durP2;ratioP2;P2;SDS_P1;SDS_P2;PMS_P1;PMS_P2;Temp;Humidity;BMP_temperature;BMP_pressure;BME280_temperature;BME280_humidity;BME280_pressure;Samples;Min_cycle;Max_cycle;Signal;HPM_P1;HPM_P2
2023/12/15 00:00:44;;;;;;;0.80;0.63;;;21.40;53.80;;;;;;4979646;28;20077;-66
2023/12/15 00:03:09;;;;;;;0.70;0.60;;;21.50;53.90;;;;;;4978649;28;20073;-66
2023/12/15 00:05:35;;;;;;;0.80;0.60;;;21.40;54.30;;;;;;4979382;28;20027;-66
2023/12/15 00:08:00;;;;;;;1.35;0.70;;;21.40;53.80;;;;;;4978946;28;20019;-66
2023/12/15 00:10:26;;;;;;;1.17;0.70;;;21.40;53.80;;;;;;4980687;28;20041;-66
2023/12/15 00:12:52;;;;;;;1.20;0.70;;;21.40;53.80;;;;;;4980943;28;20026;-66
2023/12/15 00:15:17;;;;;;;1.23;0.70;;;21.40;53.80;;;;;;4978976;28;20477;-67
2023/12/15 00:17:43;;;;;;;1.25;0.70;;;21.40;53.90;;;;;;4980253;28;20034;-66
2023/12/15 00:20:09;;;;;;;1.00;0.70;;;21.40;53.90;;;;;;4997232;28;20061;-67
2023/12/15 00:22:34;;;;;;;1.42;1.02;;;21.30;53.80;;;;;;4980978;28;20509;-66
2023/12/15 00:25:00;;;;;;;1.77;0.70;;;21.30;53.80;;;;;;4980583;28;20165;-67
2023/12/15 00:27:26;;;;;;;1.33;0.82;;;21.30;53.80;;;;;;4980458;28;20026;-66
2023/12/15 00:29:51;;;;;;;0.90;0.70;;;21.30;53.90;;;;;;4980259;28;20475;-66
2023/12/15 00:32:17;;;;;;;1.10;0.70;;;21.30;54.40;;;;;;4979366;28;20164;-68
2023/12/15 00:34:43;;;;;;;0.88;0.73;;;21.30;53.90;;;;;;4980978;28;20162;-69
2023/12/15 00:37:10;;;;;;;0.95;0.70;;;21.30;53.90;;;;;;4981058;28;20101;-68
2023/12/15 00:39:36;;;;;;;0.60;0.60;;;21.30;54.40;;;;;;4980570;28;20372;-68
2023/12/15 00:42:02;;;;;;;1.05;0.70;;;21.20;53.80;;;;;;4981992;28;20010;-68
2023/12/15 00:44:28;;;;;;;1.10;0.60;;;21.20;53.80;;;;;;4980070;28;20077;-68
2023/12/15 00:46:53;;;;;;;0.95;0.70;;;21.20;53.90;;;;;;4980851;28;20499;-68
2023/12/15 00:49:19;;;;;;;0.95;0.70;;;21.20;53.90;;;;;;4982502;28;20062;-68
2023/12/15 00:51:44;;;;;;;0.95;0.70;;;21.20;53.90;;;;;;4979534;28;20724;-68
2023/12/15 00:54:10;;;;;;;0.70;0.60;;;21.20;53.90;;;;;;4979617;28;20161;-68
2023/12/15 00:56:36;;;;;;;0.85;0.70;;;21.10;53.90;;;;;;4981533;28;20442;-68
2023/12/15 00:59:04;;;;;;;1.17;0.90;;;21.20;53.90;;;;;;4993667;28;20049;-68
2023/12/15 01:01:29;;;;;;;0.80;0.60;;;21.10;53.90;;;;;;4979618;28;20436;-68
2023/12/15 01:03:55;;;;;;;0.70;0.60;;;21.10;53.90;;;;;;4978578;28;20042;-68
2023/12/15 01:06:21;;;;;;;0.88;0.60;;;21.10;54.40;;;;;;4979380;28;20133;-68
2023/12/15 01:08:46;;;;;;;1.27;0.80;;;21.10;53.90;;;;;;4979599;28;20034;-68
2023/12/15 01:11:12;;;;;;;1.33;0.80;;;21.10;53.90;;;;;;4994634;28;20034;-69
2023/12/15 01:13:37;;;;;;;1.20;0.70;;;21.10;53.90;;;;;;4981125;28;20031;-68
2023/12/15 01:16:07;;;;;;;0.98;0.55;;;21.10;54.40;;;;;;4979309;28;20039;-68
2023/12/15 01:18:32;;;;;;;0.82;0.70;;;21.10;53.90;;;;;;4983109;28;20022;-68
2023/12/15 01:20:58;;;;;;;0.93;0.70;;;21.10;54.00;;;;;;4998096;28;20517;-68
2023/12/15 01:23:24;;;;;;;1.00;0.75;;;21.10;53.90;;;;;;4980798;28;20044;-68
2023/12/15 01:25:49;;;;;;;0.60;0.60;;;21.10;53.90;;;;;;4979958;28;20034;-69
2023/12/15 01:28:15;;;;;;;1.10;0.70;;;21.00;53.90;;;;;;4980859;28;20079;-68
2023/12/15 01:30:40;;;;;;;0.63;0.60;;;21.00;53.90;;;;;;4980178;28;20034;-69
2023/12/15 01:33:06;;;;;;;0.98;0.63;;;21.00;54.00;;;;;;4983199;28;20039;-68
2023/12/15 01:35:31;;;;;;;0.98;0.70;;;21.00;53.90;;;;;;4979957;28;20030;-69
2023/12/15 01:37:57;;;;;;;1.48;0.80;;;21.00;53.90;;;;;;4980963;28;20031;-68
2023/12/15 01:40:23;;;;;;;1.05;0.70;;;21.00;54.00;;;;;;4981994;28;20482;-68
2023/12/15 01:42:48;;;;;;;1.23;0.70;;;21.00;53.90;;;;;;4981764;28;20113;-68
2023/12/15 01:45:14;;;;;;;0.77;0.60;;;21.00;53.90;;;;;;4978597;28;20155;-68
2023/12/15 01:47:39;;;;;;;0.93;0.70;;;21.00;54.50;;;;;;4979302;28;20030;-68
2023/12/15 01:50:08;;;;;;;1.10;0.80;;;21.00;54.00;;;;;;4976089;28;20122;-68
2023/12/15 01:52:34;;;;;;;0.90;0.60;;;20.90;53.90;;;;;;4979192;28;20027;-68
2023/12/15 01:55:00;;;;;;;1.20;0.70;;;20.90;53.90;;;;;;4976484;28;20503;-69
2023/12/15 01:57:25;;;;;;;0.88;0.70;;;20.90;53.90;;;;;;4980217;28;20045;-68
2023/12/15 01:59:51;;;;;;;1.50;0.77;;;20.90;54.00;;;;;;4978817;28;20504;-68
2023/12/15 02:02:18;;;;;;;1.17;0.70;;;20.90;54.00;;;;;;4980306;28;20414;-68
2023/12/15 02:04:45;;;;;;;0.68;0.60;;;20.90;54.00;;;;;;4978707;28;20062;-69
2023/12/15 02:07:10;;;;;;;1.00;0.70;;;20.90;54.00;;;;;;4979712;28;20116;-68
2023/12/15 02:09:37;;;;;;;1.00;0.80;;;20.90;54.00;;;;;;4980787;28;20082;-68
2023/12/15 02:12:03;;;;;;;1.38;0.88;;;20.90;54.00;;;;;;4980007;28;20030;-68
2023/12/15 02:14:29;;;;;;;0.60;0.60;;;20.90;54.00;;;;;;4994806;28;20501;-68
2023/12/15 02:16:55;;;;;;;0.73;0.60;;;20.80;54.00;;;;;;4978963;28;20089;-68
2023/12/15 02:19:20;;;;;;;0.70;0.60;;;20.80;54.00;;;;;;4979763;28;20030;-68
2023/12/15 02:21:46;;;;;;;1.05;0.68;;;20.80;54.00;;;;;;4980023;28;20052;-68
2023/12/15 02:24:12;;;;;;;0.98;0.70;;;20.80;54.10;;;;;;4977965;28;20027;-68
2023/12/15 02:26:37;;;;;;;1.00;0.70;;;20.80;54.60;;;;;;4978890;28;20030;-68
2023/12/15 02:29:03;;;;;;;0.55;0.55;;;20.80;54.10;;;;;;4980066;28;20035;-68
2023/12/15 02:31:28;;;;;;;0.80;0.70;;;20.80;54.10;;;;;;4979785;28;20141;-69
2023/12/15 02:33:54;;;;;;;0.80;0.70;;;20.80;54.10;;;;;;4980354;28;20038;-68
2023/12/15 02:36:21;;;;;;;1.27;0.80;;;20.80;54.10;;;;;;4979832;28;20073;-68
2023/12/15 02:38:47;;;;;;;1.00;0.80;;;20.80;54.60;;;;;;4991873;28;20027;-69
2023/12/15 02:41:12;;;;;;;0.70;0.60;;;20.80;54.10;;;;;;4978620;28;20062;-68
2023/12/15 02:43:39;;;;;;;1.08;0.68;;;20.70;54.60;;;;;;4993501;28;20034;-68
2023/12/15 02:46:05;;;;;;;1.10;0.70;;;20.80;54.10;;;;;;4978779;28;20085;-68
2023/12/15 02:48:31;;;;;;;0.70;0.60;;;20.70;54.10;;;;;;4978834;28;20033;-68
2023/12/15 02:50:56;;;;;;;1.33;0.70;;;20.70;54.10;;;;;;4980158;28;20422;-69
2023/12/15 02:53:22;;;;;;;0.65;0.60;;;20.70;54.10;;;;;;4979037;28;20026;-68
2023/12/15 02:55:48;;;;;;;0.82;0.60;;;20.70;54.10;;;;;;4980408;28;20027;-69
2023/12/15 02:58:13;;;;;;;0.85;0.60;;;20.70;54.10;;;;;;4981726;28;20114;-69
2023/12/15 03:00:39;;;;;;;0.85;0.70;;;20.70;54.20;;;;;;4996427;28;20062;-68
2023/12/15 03:03:05;;;;;;;0.93;0.68;;;20.70;54.30;;;;;;4979279;28;20084;-69
2023/12/15 03:05:30;;;;;;;0.63;0.60;;;20.70;54.20;;;;;;4981976;28;20045;-68
2023/12/15 03:07:56;;;;;;;0.75;0.52;;;20.60;54.20;;;;;;4983698;28;20015;-68
2023/12/15 03:10:22;;;;;;;1.02;0.60;;;20.60;54.20;;;;;;4982727;28;20037;-68
2023/12/15 03:12:47;;;;;;;1.00;0.70;;;20.60;54.20;;;;;;4982619;28;20088;-69
2023/12/15 03:15:13;;;;;;;0.70;0.60;;;20.60;54.20;;;;;;4981286;28;20452;-68
2023/12/15 03:17:39;;;;;;;0.90;0.70;;;20.60;54.20;;;;;;4997525;28;20077;-69
2023/12/15 03:20:06;;;;;;;0.82;0.70;;;20.60;54.20;;;;;;4997601;28;20061;-68
2023/12/15 03:22:32;;;;;;;0.65;0.60;;;20.60;54.20;;;;;;4981231;28;20053;-69
2023/12/15 03:24:58;;;;;;;1.17;0.68;;;20.60;54.20;;;;;;4981336;28;20035;-68
2023/12/15 03:27:24;;;;;;;0.93;0.70;;;20.60;54.20;;;;;;4982567;28;20027;-68
2023/12/15 03:29:50;;;;;;;1.13;0.68;;;20.60;54.20;;;;;;4980801;28;20034;-69
2023/12/15 03:32:16;;;;;;;0.70;0.70;;;20.60;54.20;;;;;;4981961;28;20027;-68
2023/12/15 03:34:42;;;;;;;1.23;0.60;;;20.60;54.20;;;;;;4981450;28;20062;-69
2023/12/15 03:37:08;;;;;;;0.70;0.60;;;20.60;54.20;;;;;;4979378;28;20030;-69
2023/12/15 03:39:35;;;;;;;0.93;0.60;;;20.60;54.20;;;;;;4983537;28;20026;-68
2023/12/15 03:42:06;;;;;;;0.98;0.70;;;20.60;54.20;;;;;;4996508;28;20252;-68
2023/12/15 03:44:32;;;;;;;0.93;0.60;;;20.60;54.20;;;;;;4982297;28;20049;-68
2023/12/15 03:46:57;;;;;;;0.52;0.47;;;20.60;54.20;;;;;;4979967;28;20088;-68
2023/12/15 03:49:23;;;;;;;0.98;0.75;;;20.60;54.20;;;;;;4981878;28;20029;-68
2023/12/15 03:51:49;;;;;;;0.85;0.70;;;20.50;54.20;;;;;;4980380;28;20051;-67
2023/12/15 03:54:14;;;;;;;0.55;0.55;;;20.50;54.20;;;;;;4979245;28;20030;-66
2023/12/15 03:56:40;;;;;;;1.40;0.60;;;20.50;54.20;;;;;;4980383;28;20495;-66
2023/12/15 03:59:06;;;;;;;0.60;0.60;;;20.50;54.20;;;;;;4982623;28;20092;-66
2023/12/15 04:01:31;;;;;;;0.85;0.70;;;20.50;54.20;;;;;;4980396;28;20026;-68
2023/12/15 04:03:57;;;;;;;0.40;0.40;;;20.50;54.20;;;;;;4980300;28;20041;-68
2023/12/15 04:06:23;;;;;;;0.57;0.57;;;20.50;54.20;;;;;;4979809;28;20462;-69
2023/12/15 04:08:49;;;;;;;0.63;0.63;;;20.50;54.30;;;;;;4980954;28;20034;-68
2023/12/15 04:11:17;;;;;;;1.00;0.70;;;20.50;54.20;;;;;;4982352;28;20710;-68
2023/12/15 04:13:43;;;;;;;0.50;0.50;;;20.50;54.30;;;;;;4982178;28;20356;-68
2023/12/15 04:16:09;;;;;;;0.55;0.50;;;20.50;54.30;;;;;;4984117;28;20622;-68
2023/12/15 04:18:35;;;;;;;0.82;0.60;;;20.50;54.30;;;;;;4982518;28;20337;-69
2023/12/15 04:21:03;;;;;;;0.63;0.60;;;20.50;54.30;;;;;;4980506;28;20027;-68
2023/12/15 04:23:29;;;;;;;0.47;0.47;;;20.40;54.30;;;;;;4980770;28;20368;-69
2023/12/15 04:25:57;;;;;;;0.85;0.50;;;20.50;54.30;;;;;;4982917;28;20042;-68
2023/12/15 04:28:25;;;;;;;0.60;0.50;;;20.40;54.30;;;;;;4979350;28;20026;-68
2023/12/15 04:30:50;;;;;;;1.20;0.70;;;20.50;54.40;;;;;;4981183;28;20034;-68
2023/12/15 04:33:16;;;;;;;0.88;0.70;;;20.40;54.30;;;;;;4979891;28;20038;-68
2023/12/15 04:35:42;;;;;;;0.60;0.60;;;20.40;54.30;;;;;;4995581;28;20027;-68
2023/12/15 04:38:08;;;;;;;0.90;0.65;;;20.40;54.40;;;;;;4981833;28;20173;-68
2023/12/15 04:40:34;;;;;;;0.50;0.50;;;20.40;54.40;;;;;;4995660;28;20117;-68
2023/12/15 04:42:59;;;;;;;0.52;0.52;;;20.40;54.40;;;;;;4994313;28;20447;-69
2023/12/15 04:45:25;;;;;;;0.60;0.60;;;20.40;54.40;;;;;;4980931;28;20110;-68
2023/12/15 04:47:50;;;;;;;0.60;0.60;;;20.40;54.40;;;;;;4978949;28;20055;-68
2023/12/15 04:50:16;;;;;;;0.70;0.68;;;20.40;54.40;;;;;;4979680;28;20522;-67
2023/12/15 04:52:41;;;;;;;0.47;0.47;;;20.30;54.40;;;;;;4975302;28;20057;-68
2023/12/15 04:55:07;;;;;;;1.00;0.60;;;20.40;54.40;;;;;;4981089;28;20484;-67
2023/12/15 04:57:33;;;;;;;0.60;0.60;;;20.30;54.40;;;;;;4978207;28;20471;-68
2023/12/15 04:59:59;;;;;;;0.55;0.50;;;20.30;54.40;;;;;;4995375;28;20030;-68
2023/12/15 05:02:24;;;;;;;0.60;0.60;;;20.30;54.40;;;;;;4980640;28;20026;-68
2023/12/15 05:04:50;;;;;;;0.60;0.52;;;20.30;54.40;;;;;;4981036;28;20039;-68
2023/12/15 05:07:15;;;;;;;0.70;0.50;;;20.30;54.50;;;;;;4993204;28;20479;-68
2023/12/15 05:09:41;;;;;;;1.15;0.57;;;20.30;54.50;;;;;;4980494;28;20033;-68
2023/12/15 05:12:08;;;;;;;0.60;0.60;;;20.30;54.50;;;;;;4980937;28;20022;-68
2023/12/15 05:14:35;;;;;;;0.50;0.50;;;20.30;54.50;;;;;;4979589;28;20683;-68
2023/12/15 05:17:02;;;;;;;0.77;0.55;;;20.30;54.60;;;;;;4995865;28;20248;-68
2023/12/15 05:19:28;;;;;;;0.80;0.70;;;20.30;54.60;;;;;;4996916;28;20026;-68
2023/12/15 05:21:53;;;;;;;0.60;0.60;;;20.30;54.60;;;;;;4982337;28;20041;-68
2023/12/15 05:24:19;;;;;;;0.52;0.52;;;20.30;54.60;;;;;;4979749;28;20026;-68
2023/12/15 05:26:44;;;;;;;0.50;0.50;;;20.20;54.60;;;;;;4981351;28;20022;-68
2023/12/15 05:29:10;;;;;;;0.50;0.50;;;20.20;54.50;;;;;;4981410;28;20033;-68
2023/12/15 05:31:36;;;;;;;0.73;0.60;;;20.20;54.60;;;;;;4995732;28;20478;-68
2023/12/15 05:34:02;;;;;;;0.55;0.50;;;20.30;54.60;;;;;;4980529;28;20077;-68
2023/12/15 05:36:27;;;;;;;0.85;0.70;;;20.20;54.60;;;;;;4979267;28;20031;-68
2023/12/15 05:38:53;;;;;;;0.50;0.50;;;20.30;54.60;;;;;;4993758;28;20035;-68
2023/12/15 05:41:19;;;;;;;0.68;0.60;;;20.20;54.60;;;;;;4977581;28;20475;-68
2023/12/15 05:43:44;;;;;;;0.57;0.57;;;20.30;54.70;;;;;;4994814;28;20125;-68
2023/12/15 05:46:10;;;;;;;0.75;0.60;;;20.30;54.70;;;;;;4979754;28;20563;-68
2023/12/15 05:48:36;;;;;;;0.80;0.63;;;20.20;54.70;;;;;;4979335;28;20026;-68
2023/12/15 05:51:02;;;;;;;0.60;0.50;;;20.20;54.70;;;;;;4979416;28;20034;-68
2023/12/15 05:53:28;;;;;;;0.50;0.50;;;20.20;54.70;;;;;;4979498;28;20027;-68
2023/12/15 05:55:54;;;;;;;0.60;0.50;;;20.20;54.70;;;;;;4980188;28;20022;-68
2023/12/15 05:58:19;;;;;;;0.55;0.45;;;20.20;54.70;;;;;;4980295;28;20056;-68
2023/12/15 06:00:45;;;;;;;0.50;0.50;;;20.20;54.70;;;;;;4980852;28;20027;-68
2023/12/15 06:03:14;;;;;;;0.70;0.60;;;20.20;54.80;;;;;;4977832;28;20097;-69
2023/12/15 06:05:40;;;;;;;0.80;0.70;;;20.20;54.80;;;;;;4993214;28;20435;-68
2023/12/15 06:08:06;;;;;;;0.68;0.60;;;20.20;54.70;;;;;;4977524;28;20262;-69
2023/12/15 06:10:31;;;;;;;0.75;0.70;;;20.20;54.80;;;;;;4982417;28;20852;-68
2023/12/15 06:12:57;;;;;;;0.60;0.60;;;20.20;54.80;;;;;;4978757;28;20180;-68
2023/12/15 06:15:23;;;;;;;1.48;0.77;;;20.20;54.90;;;;;;4994199;28;20027;-68
2023/12/15 06:17:48;;;;;;;0.60;0.60;;;20.20;55.50;;;;;;4979251;28;20045;-68
2023/12/15 06:20:14;;;;;;;0.88;0.63;;;20.10;54.90;;;;;;4979150;28;20023;-68
2023/12/15 06:22:40;;;;;;;0.80;0.70;;;20.10;55.00;;;;;;4980068;28;20486;-67
2023/12/15 06:25:06;;;;;;;1.00;0.65;;;20.10;55.00;;;;;;4977952;28;20022;-65
2023/12/15 06:27:32;;;;;;;0.80;0.68;;;20.10;55.00;;;;;;4980766;28;20494;-66
2023/12/15 06:29:58;;;;;;;0.70;0.60;;;20.10;55.30;;;;;;4981873;28;20465;-66
2023/12/15 06:32:23;;;;;;;1.10;0.90;;;20.20;56.00;;;;;;4982913;28;20026;-69
2023/12/15 06:34:49;;;;;;;0.82;0.80;;;20.30;56.10;;;;;;4981300;28;20030;-68
2023/12/15 06:37:15;;;;;;;1.25;0.88;;;20.50;56.00;;;;;;4999159;28;20038;-68
2023/12/15 06:39:40;;;;;;;1.52;0.80;;;20.70;56.00;;;;;;4981262;28;20041;-69
2023/12/15 06:42:06;;;;;;;1.80;1.00;;;20.80;54.90;;;;;;4982946;28;20439;-68
2023/12/15 06:44:31;;;;;;;0.98;0.70;;;20.90;54.50;;;;;;4983883;28;20771;-68
2023/12/15 06:46:58;;;;;;;1.75;0.85;;;21.00;55.00;;;;;;4982318;28;20038;-68
2023/12/15 06:49:30;;;;;;;1.30;0.70;;;21.20;55.00;;;;;;4982516;28;20057;-68
2023/12/15 06:52:02;;;;;;;1.40;0.90;;;21.30;54.70;;;;;;4983049;28;20061;-68
2023/12/15 06:54:27;;;;;;;1.27;0.70;;;21.50;54.40;;;;;;4979992;28;20034;-68
2023/12/15 06:56:53;;;;;;;1.73;0.77;;;21.70;54.20;;;;;;4978153;28;20037;-68
2023/12/15 06:59:19;;;;;;;1.10;0.70;;;21.80;53.90;;;;;;4983433;28;20053;-69
2023/12/15 07:01:44;;;;;;;0.82;0.65;;;21.90;53.60;;;;;;4982577;28;20023;-68
2023/12/15 07:04:10;;;;;;;0.80;0.68;;;22.10;53.40;;;;;;4981712;28;20091;-68
2023/12/15 07:06:35;;;;;;;2.08;0.70;;;22.20;52.70;;;;;;4981767;28;20022;-68
2023/12/15 07:09:01;;;;;;;1.77;0.70;;;22.30;52.80;;;;;;4982202;28;20430;-68
2023/12/15 07:11:27;;;;;;;1.38;0.80;;;22.30;52.70;;;;;;4985140;28;20027;-69
2023/12/15 07:13:53;;;;;;;0.70;0.70;;;22.40;52.70;;;;;;4983728;28;20109;-69
2023/12/15 07:16:18;;;;;;;0.95;0.70;;;22.60;52.40;;;;;;4982809;28;20042;-68
2023/12/15 07:18:45;;;;;;;1.45;0.90;;;22.70;52.20;;;;;;4982924;28;20446;-68
2023/12/15 07:21:11;;;;;;;2.05;0.90;;;22.80;52.00;;;;;;4996459;28;20664;-68
2023/12/15 07:23:37;;;;;;;0.88;0.70;;;23.00;51.80;;;;;;4981594;28;20391;-68
2023/12/15 07:26:04;;;;;;;0.93;0.70;;;23.10;51.50;;;;;;4982604;28;20029;-68
2023/12/15 07:28:30;;;;;;;3.42;0.75;;;23.20;51.20;;;;;;4982027;28;20076;-68
2023/12/15 07:30:55;;;;;;;2.17;0.80;;;23.30;51.10;;;;;;4981485;28;20097;-68
2023/12/15 07:33:21;;;;;;;1.17;1.00;;;23.40;50.90;;;;;;4983368;28;20430;-68
2023/12/15 07:35:46;;;;;;;1.05;0.80;;;23.50;50.80;;;;;;4982679;28;20031;-68
2023/12/15 07:38:12;;;;;;;0.98;0.70;;;23.50;50.70;;;;;;4980931;28;20397;-68
2023/12/15 07:40:37;;;;;;;1.77;0.70;;;23.70;50.00;;;;;;4981372;28;20052;-68
2023/12/15 07:43:03;;;;;;;0.93;0.80;;;23.70;50.30;;;;;;4980384;28;20034;-68
2023/12/15 07:45:29;;;;;;;1.27;0.80;;;23.70;49.90;;;;;;4982987;28;20058;-69
2023/12/15 07:47:56;;;;;;;1.33;0.80;;;23.70;49.80;;;;;;4982543;28;20024;-69
2023/12/15 07:50:22;;;;;;;1.30;0.95;;;23.60;49.60;;;;;;4983655;28;20170;-69
2023/12/15 07:52:47;;;;;;;0.80;0.70;;;23.50;49.50;;;;;;4982604;28;20501;-69
2023/12/15 07:55:13;;;;;;;1.35;0.90;;;23.40;49.60;;;;;;4981269;28;20038;-69
2023/12/15 07:57:39;;;;;;;1.23;1.00;;;23.40;49.60;;;;;;4983619;28;20027;-69
2023/12/15 08:00:09;;;;;;;1.42;0.82;;;23.40;49.70;;;;;;4996807;28;20057;-69
2023/12/15 08:02:35;;;;;;;0.90;0.70;;;23.30;50.40;;;;;;4997277;28;20033;-68
2023/12/15 08:05:00;;;;;;;0.95;0.70;;;23.50;50.70;;;;;;4980736;28;20039;-68
2023/12/15 08:07:26;;;;;;;0.85;0.70;;;23.60;50.90;;;;;;4978245;28;20195;-68
2023/12/15 08:09:51;;;;;;;1.13;0.57;;;23.60;51.10;;;;;;4982105;28;20301;-68
2023/12/15 08:12:17;;;;;;;0.63;0.55;;;23.50;51.50;;;;;;4981252;28;20092;-68
2023/12/15 08:14:43;;;;;;;0.90;0.70;;;23.50;51.80;;;;;;4994614;28;20402;-68
2023/12/15 08:17:08;;;;;;;0.65;0.50;;;23.50;52.20;;;;;;4984264;28;20030;-68
2023/12/15 08:19:34;;;;;;;0.50;0.50;;;23.50;52.40;;;;;;4981245;28;20565;-68
2023/12/15 08:21:59;;;;;;;0.55;0.55;;;23.50;52.60;;;;;;4981579;28;20067;-68
2023/12/15 08:24:26;;;;;;;0.77;0.60;;;23.50;52.80;;;;;;4980725;28;20065;-68
2023/12/15 08:26:53;;;;;;;0.52;0.52;;;23.50;53.20;;;;;;4981585;28;20506;-67
2023/12/15 08:29:20;;;;;;;0.80;0.60;;;23.50;53.40;;;;;;4981475;28;20054;-69
2023/12/15 08:31:46;;;;;;;0.50;0.50;;;23.50;53.60;;;;;;4980000;28;20568;-69
2023/12/15 08:34:12;;;;;;;0.50;0.50;;;23.50;53.70;;;;;;4981345;28;20033;-68
2023/12/15 08:36:37;;;;;;;0.68;0.50;;;23.50;53.80;;;;;;4982167;28;20038;-68
2023/12/15 08:39:03;;;;;;;0.80;0.60;;;23.50;54.00;;;;;;4980307;28;20457;-68
2023/12/15 08:41:28;;;;;;;0.68;0.60;;;23.50;54.10;;;;;;4979947;28;20041;-68
2023/12/15 08:43:54;;;;;;;1.52;0.60;;;23.50;54.30;;;;;;4977511;28;20035;-68
2023/12/15 08:46:20;;;;;;;0.50;0.50;;;23.50;54.30;;;;;;4978591;28;20399;-68
2023/12/15 08:48:45;;;;;;;0.85;0.50;;;23.60;54.40;;;;;;4980819;28;20324;-68
2023/12/15 08:51:11;;;;;;;0.95;0.63;;;23.60;54.40;;;;;;4980268;28;20035;-68
2023/12/15 08:53:37;;;;;;;0.82;0.60;;;23.50;54.30;;;;;;4981261;28;20062;-68
2023/12/15 08:56:02;;;;;;;0.70;0.60;;;23.50;54.60;;;;;;4981445;28;20045;-68
2023/12/15 08:58:28;;;;;;;0.60;0.60;;;23.50;54.80;;;;;;4981015;28;20102;-68
2023/12/15 09:00:54;;;;;;;0.75;0.60;;;23.60;55.00;;;;;;4981313;28;20431;-68
2023/12/15 09:03:20;;;;;;;1.00;0.60;;;23.60;54.90;;;;;;4981435;28;20037;-68
2023/12/15 09:05:45;;;;;;;0.70;0.60;;;23.60;54.90;;;;;;4981297;28;20022;-68
2023/12/15 09:08:12;;;;;;;0.50;0.50;;;23.60;55.20;;;;;;4980062;28;20038;-69
2023/12/15 09:10:43;;;;;;;0.68;0.60;;;23.60;55.30;;;;;;4994403;28;20451;-68
2023/12/15 09:13:10;;;;;;;0.60;0.60;;;23.60;55.40;;;;;;4979155;28;20029;-69
2023/12/15 09:15:36;;;;;;;1.15;0.93;;;23.60;55.20;;;;;;4982138;28;20516;-69
2023/12/15 09:18:01;;;;;;;2.38;0.85;;;23.60;53.40;;;;;;4980458;28;20057;-69
2023/12/15 09:20:27;;;;;;;0.95;0.70;;;23.60;51.70;;;;;;4981257;28;20044;-69
2023/12/15 09:22:54;;;;;;;0.85;0.70;;;23.50;51.20;;;;;;4977496;28;20085;-69
2023/12/15 09:25:20;;;;;;;0.70;0.60;;;23.50;51.50;;;;;;4995795;28;20096;-69
2023/12/15 09:27:45;;;;;;;0.70;0.70;;;23.50;52.10;;;;;;4980159;28;20572;-69
2023/12/15 09:30:11;;;;;;;0.70;0.70;;;23.50;52.10;;;;;;4977834;28;20023;-69
2023/12/15 09:32:37;;;;;;;0.60;0.60;;;23.50;52.50;;;;;;4979445;28;20026;-69
2023/12/15 09:35:03;;;;;;;0.73;0.63;;;23.50;52.70;;;;;;4995171;28;20137;-69
2023/12/15 09:37:29;;;;;;;0.60;0.60;;;23.50;52.70;;;;;;4981995;28;20037;-69
2023/12/15 09:39:55;;;;;;;3.22;0.50;;;23.50;53.10;;;;;;4979753;28;20058;-69
2023/12/15 09:42:23;;;;;;;0.90;0.60;;;23.50;53.20;;;;;;4979538;28;20502;-69
2023/12/15 09:44:49;;;;;;;0.70;0.60;;;23.50;53.00;;;;;;4981761;28;20117;-69
2023/12/15 09:47:19;;;;;;;0.88;0.60;;;23.50;52.90;;;;;;4990551;28;20023;-69
2023/12/15 09:49:50;;;;;;;0.77;0.60;;;23.40;52.50;;;;;;4991044;28;20089;-69
2023/12/15 09:52:17;;;;;;;0.52;0.52;;;23.40;52.50;;;;;;4986447;28;20030;-68
2023/12/15 09:54:43;;;;;;;0.65;0.60;;;23.40;52.50;;;;;;4989542;28;20084;-68
2023/12/15 09:57:09;;;;;;;0.90;0.60;;;23.40;52.60;;;;;;4984841;28;20028;-69
2023/12/15 09:59:37;;;;;;;0.60;0.60;;;23.40;53.00;;;;;;4980485;28;20181;-68
2023/12/15 10:02:04;;;;;;;1.30;0.63;;;23.40;53.50;;;;;;4979246;28;20027;-68
2023/12/15 10:04:29;;;;;;;1.17;0.70;;;23.40;53.50;;;;;;4980221;28;20072;-69
2023/12/15 10:06:55;;;;;;;0.57;0.50;;;23.40;53.30;;;;;;4978873;28;20027;-68
2023/12/15 10:09:20;;;;;;;0.60;0.57;;;23.40;53.50;;;;;;4978359;28;20035;-68
2023/12/15 10:11:46;;;;;;;0.75;0.60;;;23.40;54.10;;;;;;4977522;28;20026;-68
2023/12/15 10:14:14;;;;;;;0.65;0.50;;;23.40;53.90;;;;;;4979774;28;20035;-68
2023/12/15 10:16:40;;;;;;;0.75;0.60;;;23.40;54.00;;;;;;4979611;28;20038;-68
2023/12/15 10:19:07;;;;;;;0.75;0.60;;;23.40;53.40;;;;;;4979262;28;20491;-70
2023/12/15 10:21:34;;;;;;;0.75;0.60;;;23.40;53.50;;;;;;4981115;28;20032;-68
2023/12/15 10:24:23;;;;;;;0.60;0.50;;;23.40;54.30;;;;;;4980107;28;20034;-68
2023/12/15 10:26:49;;;;;;;0.50;0.50;;;23.40;53.40;;;;;;4979256;28;20030;-68
2023/12/15 10:29:18;;;;;;;0.88;0.52;;;23.40;53.30;;;;;;4993311;28;20368;-68
2023/12/15 10:31:44;;;;;;;0.65;0.60;;;23.40;53.20;;;;;;4980068;28;20540;-68
2023/12/15 10:34:09;;;;;;;0.50;0.50;;;23.30;53.10;;;;;;4977687;28;20045;-68
2023/12/15 10:36:40;;;;;;;0.88;0.63;;;23.30;52.90;;;;;;4980278;28;20027;-68
2023/12/15 10:39:06;;;;;;;0.88;0.60;;;23.30;52.90;;;;;;4979462;28;20029;-70
2023/12/15 10:41:34;;;;;;;0.82;0.65;;;23.30;52.90;;;;;;4979397;28;20502;-70
2023/12/15 10:44:01;;;;;;;0.70;0.55;;;23.30;52.80;;;;;;4978266;28;20036;-70
2023/12/15 10:46:31;;;;;;;0.75;0.60;;;23.30;52.80;;;;;;4980699;28;20030;-70
2023/12/15 10:48:59;;;;;;;1.38;0.80;;;23.30;52.80;;;;;;4978364;28;20097;-70
2023/12/15 10:51:25;;;;;;;0.90;0.70;;;23.30;52.80;;;;;;4979692;28;20025;-70
2023/12/15 10:53:56;;;;;;;1.20;0.68;;;23.30;52.70;;;;;;4979048;28;20035;-70
2023/12/15 10:56:26;;;;;;;0.80;0.57;;;23.30;52.70;;;;;;4977058;28;20471;-68
2023/12/15 10:58:53;;;;;;;0.95;0.68;;;23.30;52.70;;;;;;4976970;28;20061;-69
2023/12/15 11:01:19;;;;;;;1.20;0.73;;;23.30;52.60;;;;;;4979006;28;20080;-69
2023/12/15 11:03:44;;;;;;;1.23;0.70;;;23.30;52.60;;;;;;4980687;28;20077;-69
2023/12/15 11:06:10;;;;;;;1.25;0.65;;;23.30;52.60;;;;;;4977978;28;20066;-70
2023/12/15 11:08:36;;;;;;;1.02;0.70;;;23.30;53.00;;;;;;4976772;28;20035;-68
2023/12/15 11:11:08;;;;;;;2.47;1.00;;;23.30;53.50;;;;;;4979828;28;20027;-69
2023/12/15 11:14:04;;;;;;;1.48;1.00;;;23.40;52.10;;;;;;4978903;28;20030;-68
2023/12/15 11:16:36;;;;;;;3.53;1.23;;;23.40;51.50;;;;;;4982371;28;20085;-69
2023/12/15 11:19:02;;;;;;;2.15;1.13;;;23.30;51.00;;;;;;4980777;28;20395;-69
2023/12/15 11:21:29;;;;;;;2.30;1.10;;;23.30;51.10;;;;;;4981354;28;20034;-70
2023/12/15 11:24:07;;;;;;;2.80;1.35;;;23.30;51.00;;;;;;4983214;28;20042;-69
2023/12/15 11:26:41;;;;;;;2.85;1.10;;;23.30;50.90;;;;;;4984036;28;20040;-69
2023/12/15 11:29:12;;;;;;;3.55;1.30;;;23.30;50.90;;;;;;4985435;28;20026;-69
2023/12/15 11:31:41;;;;;;;2.75;1.30;;;23.30;50.90;;;;;;4982688;28;20482;-69
2023/12/15 11:34:08;;;;;;;2.35;1.20;;;23.30;50.80;;;;;;4981673;28;20031;-69
2023/12/15 11:36:41;;;;;;;2.38;1.10;;;23.30;51.00;;;;;;4981593;28;20046;-69
2023/12/15 11:39:12;;;;;;;3.95;1.10;;;23.20;51.00;;;;;;4981951;28;20443;-68
2023/12/15 11:41:38;;;;;;;2.60;1.20;;;23.20;51.10;;;;;;4980470;28;20486;-69
2023/12/15 11:44:05;;;;;;;2.78;1.23;;;23.20;51.10;;;;;;4981631;28;20023;-69
2023/12/15 11:46:31;;;;;;;2.35;1.20;;;23.10;51.10;;;;;;4981708;28;20091;-69
2023/12/15 11:48:57;;;;;;;3.10;1.30;;;23.10;51.20;;;;;;4981376;28;20031;-69
2023/12/15 11:51:25;;;;;;;4.65;1.30;;;23.10;51.20;;;;;;4981166;28;20070;-69
2023/12/15 11:53:51;;;;;;;2.90;1.33;;;23.10;51.30;;;;;;4983130;28;20483;-69
2023/12/15 11:56:18;;;;;;;2.72;1.25;;;23.10;51.20;;;;;;4981339;28;20033;-69
2023/12/15 11:58:44;;;;;;;3.08;1.40;;;23.10;51.30;;;;;;4979559;28;20057;-69
2023/12/15 12:01:10;;;;;;;2.65;1.30;;;23.00;51.30;;;;;;4982391;28;20042;-69
2023/12/15 12:03:36;;;;;;;3.00;1.30;;;23.00;51.40;;;;;;4980762;28;20135;-68
2023/12/15 12:06:05;;;;;;;2.22;1.20;;;23.00;51.40;;;;;;4979296;28;20070;-68
2023/12/15 12:08:33;;;;;;;3.88;1.20;;;23.00;51.50;;;;;;4981876;28;20030;-68
2023/12/15 12:10:59;;;;;;;1.88;1.10;;;23.00;51.50;;;;;;4981182;28;20081;-68
2023/12/15 12:13:33;;;;;;;2.30;1.20;;;23.00;51.50;;;;;;4982062;28;20031;-69
2023/12/15 12:16:00;;;;;;;2.03;1.15;;;23.00;51.70;;;;;;4979800;28;20035;-68
2023/12/15 12:18:27;;;;;;;3.35;1.10;;;22.90;51.80;;;;;;4979170;28;20031;-68
2023/12/15 12:20:56;;;;;;;2.85;1.33;;;22.90;51.60;;;;;;4980799;28;20056;-67
2023/12/15 12:23:27;;;;;;;4.47;1.30;;;22.90;51.50;;;;;;4981661;28;20031;-68
2023/12/15 12:25:54;;;;;;;4.30;1.42;;;22.90;51.40;;;;;;4979269;28;20383;-68
2023/12/15 12:28:21;;;;;;;4.53;1.63;;;23.00;51.40;;;;;;4980952;28;20105;-68
2023/12/15 12:30:48;;;;;;;3.50;1.40;;;22.90;51.40;;;;;;4979750;28;20490;-68
2023/12/15 12:33:14;;;;;;;3.47;1.48;;;22.90;51.40;;;;;;4982646;28;20037;-67
2023/12/15 12:35:39;;;;;;;3.38;1.40;;;22.90;51.40;;;;;;4979456;28;20030;-68
2023/12/15 12:38:06;;;;;;;3.10;1.27;;;22.90;51.50;;;;;;4995866;28;20030;-68
2023/12/15 12:40:32;;;;;;;3.63;1.30;;;22.80;51.40;;;;;;4980092;28;20034;-68
2023/12/15 12:42:58;;;;;;;3.33;1.27;;;22.80;51.50;;;;;;4995791;28;20112;-68